Time;durP1;ratioP1;P1;durP2;ratioP2;P2;SDS_P1;SDS_P2;PMS_P1;PMS_P2;Temp;Humidity;BMP_temperature;BMP_pressure;BME280_temperature;BME280_humidity;BME280_pressure;Samples;Min_cycle;Max_cycle;Signal;HPM_P1;HPM_P2
2021/05/02 00:00:32;;;;;;;20.17;9.07;;;;;;;1.85;92.52;101289.25;2577107;55;20121;-74
2021/05/02 00:03:01;;;;;;;20.25;11.02;;;;;;;1.86;92.15;101300.63;2576157;55;20129;-74
2021/05/02 00:05:29;;;;;;;22.60;12.10;;;;;;;1.81;92.36;101295.50;2575761;55;20131;-74
2021/05/02 00:07:59;;;;;;;24.92;12.70;;;;;;;1.77;91.97;101292.09;2575505;55;20127;-74
2021/05/02 00:10:30;;;;;;;35.00;14.55;;;;;;;1.72;91.64;101298.41;2575776;55;20125;-73
2021/05/02 00:12:59;;;;;;;23.77;11.95;;;;;;;1.62;92.08;101287.31;2575691;55;20145;-74
2021/05/02 00:15:28;;;;;;;17.17;9.20;;;;;;;1.61;92.24;101296.09;2575749;55;20113;-73
2021/05/02 00:17:56;;;;;;;14.57;6.78;;;;;;;1.57;92.24;101297.06;2575651;55;20717;-74
2021/05/02 00:20:25;;;;;;;15.43;6.20;;;;;;;1.49;92.11;101287.63;2575999;55;20143;-74
2021/05/02 00:22:55;;;;;;;10.10;5.87;;;;;;;1.51;92.33;101296.34;2575695;55;20125;-74
2021/05/02 00:25:25;;;;;;;12.80;7.07;;;;;;;1.49;91.77;101303.41;2573541;55;20121;-74
2021/05/02 00:27:53;;;;;;;16.62;7.53;;;;;;;1.46;91.83;101306.12;2575669;55;20143;-74
2021/05/02 00:30:23;;;;;;;14.50;7.53;;;;;;;1.43;92.01;101303.59;2575434;55;20179;-74
2021/05/02 00:32:52;;;;;;;18.15;8.32;;;;;;;1.39;92.01;101302.81;2575942;55;20123;-74
2021/05/02 00:35:22;;;;;;;11.00;6.32;;;;;;;1.38;92.43;101305.47;2575584;55;20487;-74
2021/05/02 00:37:50;;;;;;;14.25;6.62;;;;;;;1.32;92.27;101305.66;2575726;55;20125;-74
2021/05/02 00:40:20;;;;;;;14.00;7.15;;;;;;;1.27;91.77;101299.62;2575868;55;20680;-75
2021/05/02 00:42:50;;;;;;;48.13;17.00;;;;;;;1.20;92.35;101298.94;2575505;55;20129;-74
2021/05/02 00:45:25;;;;;;;14.35;6.20;;;;;;;1.15;92.45;101296.44;2575746;55;20138;-74
2021/05/02 00:48:05;;;;;;;11.75;6.32;;;;;;;1.15;93.35;101299.06;2575805;55;20143;-74
2021/05/02 00:50:39;;;;;;;14.43;6.30;;;;;;;1.06;93.45;101302.81;2575860;55;20131;-74
2021/05/02 00:53:24;;;;;;;11.52;6.15;;;;;;;1.12;93.56;101299.16;2575477;55;20122;-74
2021/05/02 00:55:56;;;;;;;13.60;6.10;;;;;;;1.04;93.98;101293.22;2575552;55;20109;-74
2021/05/02 00:58:33;;;;;;;12.82;6.15;;;;;;;1.06;93.47;101294.94;2575558;55;20125;-74
2021/05/02 01:01:02;;;;;;;18.75;8.23;;;;;;;0.97;93.19;101288.13;2575634;55;20117;-74
2021/05/02 01:03:33;;;;;;;13.18;6.50;;;;;;;0.95;93.12;101292.56;2575709;55;20139;-74
2021/05/02 01:06:08;;;;;;;15.73;7.82;;;;;;;1.03;93.70;101302.03;2570253;55;20653;-74
2021/05/02 01:08:37;;;;;;;12.32;6.00;;;;;;;0.94;93.58;101301.34;2575763;55;20131;-74
2021/05/02 01:11:05;;;;;;;16.40;6.25;;;;;;;0.92;94.01;101302.28;2575710;55;20121;-74
2021/05/02 01:13:37;;;;;;;10.77;6.22;;;;;;;0.91;94.57;101306.69;2575979;55;20106;-74
2021/05/02 01:16:09;;;;;;;12.13;5.60;;;;;;;0.85;93.65;101306.84;2576186;55;20551;-74
2021/05/02 01:18:37;;;;;;;11.93;5.00;;;;;;;0.78;94.69;101305.25;2576148;55;20120;-74
2021/05/02 01:21:05;;;;;;;7.87;4.85;;;;;;;0.75;94.58;101307.97;2576663;55;20517;-74
2021/05/02 01:23:35;;;;;;;12.70;6.05;;;;;;;0.73;94.98;101310.63;2576243;55;20125;-74
2021/05/02 01:26:03;;;;;;;9.52;5.60;;;;;;;0.72;94.67;101300.19;2576184;55;20118;-74
2021/05/02 01:28:31;;;;;;;10.02;4.85;;;;;;;0.71;94.95;101298.44;2576350;55;20620;-74
2021/05/02 01:30:58;;;;;;;14.10;5.37;;;;;;;0.69;95.32;101296.69;2576298;55;20638;-73
2021/05/02 01:33:26;;;;;;;10.27;5.72;;;;;;;0.65;95.85;101309.94;2576514;55;20139;-73
2021/05/02 01:35:55;;;;;;;12.37;5.45;;;;;;;0.58;97.19;101303.97;2576282;55;20130;-73
2021/05/02 01:38:24;;;;;;;8.77;5.57;;;;;;;0.58;97.05;101301.34;2576032;55;20128;-73
2021/05/02 01:40:54;;;;;;;14.15;7.00;;;;;;;0.58;96.85;101303.12;2576503;55;20650;-73
2021/05/02 01:43:24;;;;;;;12.80;5.57;;;;;;;0.62;96.66;101304.78;2576330;55;20120;-74
2021/05/02 01:45:52;;;;;;;9.52;5.65;;;;;;;0.63;95.39;101296.00;2576503;55;20143;-74
2021/05/02 01:48:23;;;;;;;12.73;6.62;;;;;;;0.62;96.09;101295.16;2576460;55;20113;-74
2021/05/02 01:51:00;;;;;;;14.25;6.93;;;;;;;0.59;96.12;101295.19;2576332;55;20697;-74
2021/05/02 01:53:28;;;;;;;9.95;5.70;;;;;;;0.55;96.42;101304.94;2576277;55;20117;-73
2021/05/02 01:55:59;;;;;;;11.00;6.65;;;;;;;0.54;97.77;101302.34;2570973;55;20619;-74
2021/05/02 01:58:32;;;;;;;8.45;6.03;;;;;;;0.52;98.21;101304.16;2576189;55;20692;-74
2021/05/02 02:01:01;;;;;;;10.52;5.70;;;;;;;0.53;97.84;101305.88;2576451;55;20143;-74
2021/05/02 02:03:30;;;;;;;12.68;6.00;;;;;;;0.56;97.28;101311.03;2576381;55;20497;-74
2021/05/02 02:05:58;;;;;;;13.07;5.82;;;;;;;0.56;96.75;101308.41;2574581;55;20131;-74
2021/05/02 02:08:26;;;;;;;17.10;6.35;;;;;;;0.55;96.95;101301.44;2571310;55;20136;-74
2021/05/02 02:10:53;;;;;;;19.17;7.87;;;;;;;0.55;96.89;101310.19;2576496;55;20129;-74
2021/05/02 02:13:22;;;;;;;14.07;6.30;;;;;;;0.51;97.28;101291.91;2576718;55;20139;-73
2021/05/02 02:15:49;;;;;;;14.45;6.00;;;;;;;0.62;97.63;101310.91;2576379;55;20139;-73
2021/05/02 02:18:18;;;;;;;14.70;7.62;;;;;;;0.61;96.89;101309.19;2576190;55;20522;-73
2021/05/02 02:20:49;;;;;;;18.52;9.77;;;;;;;0.62;97.80;101299.53;2576038;55;20507;-73
2021/05/02 02:23:19;;;;;;;24.17;11.52;;;;;;;0.60;97.79;101310.09;2576215;55;20120;-73
2021/05/02 02:25:49;;;;;;;19.10;9.32;;;;;;;0.57;97.61;101307.50;2575847;55;20134;-73
2021/05/02 02:28:18;;;;;;;21.35;10.48;;;;;;;0.58;97.61;101309.22;2575919;55;20121;-73
2021/05/02 02:30:48;;;;;;;18.37;9.98;;;;;;;0.61;97.20;101306.56;2575786;55;20132;-73
2021/05/02 02:33:16;;;;;;;21.15;9.57;;;;;;;0.61;97.66;101303.94;2575990;55;20535;-73
2021/05/02 02:35:50;;;;;;;22.10;9.43;;;;;;;0.65;97.39;101310.81;2576154;55;20117;-74
2021/05/02 02:38:20;;;;;;;17.50;9.25;;;;;;;0.68;97.61;101313.34;2576056;55;20109;-73
2021/05/02 02:40:50;;;;;;;18.05;8.77;;;;;;;0.71;96.88;101306.34;2576244;55;20131;-73
2021/05/02 02:43:23;;;;;;;13.00;6.30;;;;;;;0.72;97.24;101300.19;2575871;55;20110;-73
2021/05/02 02:45:54;;;;;;;14.75;6.37;;;;;;;0.73;97.86;101301.91;2576188;55;20105;-73
2021/05/02 02:48:25;;;;;;;13.65;6.57;;;;;;;0.73;98.01;101301.91;2576085;55;20139;-74
2021/05/02 02:50:55;;;;;;;10.48;5.85;;;;;;;0.74;97.46;101304.47;2576388;55;20135;-73
2021/05/02 02:53:24;;;;;;;9.43;5.78;;;;;;;0.76;97.78;101307.06;2575995;55;20121;-74
2021/05/02 02:56:04;;;;;;;12.32;6.40;;;;;;;0.83;96.47;101303.41;2576126;55;20117;-74
2021/05/02 02:58:36;;;;;;;15.82;6.30;;;;;;;0.76;97.43;101291.31;2576235;55;20120;-74
2021/05/02 03:01:05;;;;;;;;;;;;;;;1.01;94.72;101306.47;2576270;55;20110;-73
2021/05/02 03:03:33;;;;;;;23.02;11.05;;;;;;;0.83;96.03;101313.91;2576032;55;20383;-74
2021/05/02 03:06:02;;;;;;;21.60;10.48;;;;;;;0.81;96.66;101303.41;2575829;55;20137;-74
2021/05/02 03:08:30;;;;;;;17.20;9.55;;;;;;;0.82;96.30;101310.41;2576225;55;20125;-73
2021/05/02 03:10:59;;;;;;;19.77;9.38;;;;;;;0.87;96.60;101310.28;2576112;55;20117;-74
2021/05/02 03:13:27;;;;;;;13.95;8.23;;;;;;;0.91;95.75;101303.19;2576263;55;20109;-73
2021/05/02 03:15:55;;;;;;;14.98;6.40;;;;;;;0.91;96.78;101303.19;2576128;55;20208;-73
2021/05/02 03:18:26;;;;;;;11.10;5.90;;;;;;;0.96;95.78;101299.53;2573608;55;20131;-73
2021/05/02 03:20:58;;;;;;;11.38;6.03;;;;;;;0.97;96.47;101301.25;2576098;55;20139;-74
2021/05/02 03:23:39;;;;;;;9.82;4.97;;;;;;;1.14;95.30;101318.37;2576084;55;20129;-73
2021/05/02 03:26:08;;;;;;;18.23;5.03;;;;;;;0.90;95.95;101289.22;2570747;55;20137;-74
2021/05/02 03:28:40;;;;;;;8.55;4.85;;;;;;;1.04;96.21;101311.63;2575885;55;20117;-73
2021/05/02 03:31:10;;;;;;;11.50;5.12;;;;;;;1.11;95.53;101315.84;2575796;55;20121;-73
2021/05/02 03:33:46;;;;;;;12.13;6.35;;;;;;;1.17;95.80;101318.28;2575938;55;20127;-74
2021/05/02 03:36:18;;;;;;;13.50;6.05;;;;;;;1.22;94.95;101328.69;2575998;55;20616;-73
2021/05/02 03:38:48;;;;;;;13.80;5.93;;;;;;;1.22;95.57;101319.03;2575487;55;20664;-74
2021/05/02 03:41:17;;;;;;;10.43;6.22;;;;;;;1.22;95.50;101320.78;2575968;55;20110;-73
2021/05/02 03:43:46;;;;;;;12.52;5.85;;;;;;;1.27;95.56;101325.94;2575778;55;20116;-73
2021/05/02 03:46:26;;;;;;;12.40;6.35;;;;;;;1.29;95.92;101326.75;2570847;55;20117;-73
2021/05/02 03:48:57;;;;;;;12.20;7.32;;;;;;;1.34;95.76;101319.62;2575864;55;20131;-73
2021/05/02 03:51:25;;;;;;;;;;;;;;;1.56;94.94;101325.16;2576286;55;20137;-73
2021/05/02 03:53:53;;;;;;;12.35;7.28;;;;;;;1.51;95.32;101324.41;2575694;55;19993;-73
2021/05/02 03:56:34;;;;;;;20.75;8.98;;;;;;;1.59;94.92;101332.09;2575797;55;20187;-74
2021/05/02 03:59:05;;;;;;;;;;;;;;;1.75;92.32;101330.75;2575810;55;20117;-74
2021/05/02 04:01:32;;;;;;;;;;;;;;;1.82;92.10;101326.19;2576183;55;20451;-73
2021/05/02 04:04:01;;;;;;;;;;;;;;;1.90;91.55;101331.22;2576159;55;20020;-74
2021/05/02 04:06:28;;;;;;;;;;;;;;;1.99;90.33;101338.84;2575882;55;20047;-73
2021/05/02 04:08:55;;;;;;;;;;;;;;;2.05;90.39;101333.41;2576337;55;19997;-74
2021/05/02 04:11:22;;;;;;;;;;;;;;;2.20;90.27;101333.84;2576599;55;20106;-73
2021/05/02 04:13:49;;;;;;;;;;;;;;;2.17;90.52;101337.47;2571323;55;20044;-73
2021/05/02 04:16:17;;;;;;;;;;;;;;;2.21;90.66;101343.50;2576055;55;20012;-73
2021/05/02 04:18:44;;;;;;;;;;;;;;;2.28;89.86;101341.53;2577130;55;19999;-71
2021/05/02 04:21:12;;;;;;;;;;;;;;;2.35;89.46;101345.69;2578732;55;20001;-71
2021/05/02 04:23:42;;;;;;;;;;;;;;;2.40;89.37;101346.41;2578843;55;19992;-71
2021/05/02 04:26:09;;;;;;;;;;;;;;;2.45;89.39;101355.03;2578550;55;19989;-73
2021/05/02 04:28:36;;;;;;;;;;;;;;;2.53;89.24;101346.91;2578524;55;20034;-73
2021/05/02 04:31:03;;;;;;;;;;;;;;;2.60;88.89;101340.50;2578719;55;19992;-71
2021/05/02 04:33:31;;;;;;;;;;;;;;;2.61;89.34;101341.38;2578644;55;19980;-73
2021/05/02 04:35:58;;;;;;;;;;;;;;;2.61;88.88;101352.81;2578625;55;20004;-73
2021/05/02 04:38:26;;;;;;;;;;;;;;;2.63;89.77;101350.97;2578480;55;20015;-70
2021/05/02 04:40:53;;;;;;;;;;;;;;;2.74;89.69;101355.03;2579028;55;20491;-71
2021/05/02 04:43:20;;;;;;;;;;;;;;;2.85;89.88;101359.94;2578505;55;19996;-73
2021/05/02 04:45:47;;;;;;;;;;;;;;;2.97;88.69;101348.16;2578781;55;19996;-71
2021/05/02 04:48:14;;;;;;;;;;;;;;;3.04;87.92;101361.06;2578616;55;19996;-71
2021/05/02 04:50:41;;;;;;;;;;;;;;;3.19;87.31;101364.97;2578454;55;19989;-74
2021/05/02 04:53:08;;;;;;;;;;;;;;;3.23;87.47;101351.69;2578611;55;19999;-71
2021/05/02 04:55:37;;;;;;;;;;;;;;;3.25;87.17;101357.78;2578445;55;20032;-74
2021/05/02 04:58:06;;;;;;;;;;;;;;;3.25;87.41;101355.97;2578789;55;20006;-72
2021/05/02 05:00:34;;;;;;;;;;;;;;;3.31;86.76;101361.06;2578578;55;20463;-74
2021/05/02 05:03:03;;;;;;;;;;;;;;;3.41;86.29;101358.97;2578638;55;19997;-73
2021/05/02 05:05:37;;;;;;;;;;;;;;;3.57;86.07;101358.41;2578460;55;20007;-71
2021/05/02 05:08:15;;;;;;;;;;;;;;;3.64;84.59;101349.38;2578276;55;20003;-72
2021/05/02 05:10:45;;;;;;;;;;;;;;;3.62;84.58;101351.22;2575843;55;20015;-71
2021/05/02 05:13:13;;;;;;;;;;;;;;;3.59;84.47;101353.94;2575764;55;20380;-70
2021/05/02 05:15:42;;;;;;;;;;;;;;;3.62;84.35;101349.41;2575404;55;20016;-71
2021/05/02 05:18:10;;;;;;;;;;;;;;;3.72;84.42;101344.69;2569943;55;20383;-71
2021/05/02 05:20:37;;;;;;;;;;;;;;;3.82;84.06;101357.56;2570700;55;20383;-70
2021/05/02 05:23:04;;;;;;;;;;;;;;;3.91;83.34;101357.22;2574432;55;20434;-72
2021/05/02 05:25:35;;;;;;;;;;;;;;;3.94;83.99;101357.09;2574484;55;20487;-71
2021/05/02 05:28:06;;;;;;;;;;;;;;;4.22;80.32;101349.91;2575451;55;20004;-71
2021/05/02 05:30:37;;;;;;;;;;;;;;;4.19;82.15;101358.81;2576052;55;19996;-72
2021/05/02 05:33:05;;;;;;;;;;;;;;;4.23;83.15;101351.63;2575685;55;20020;-73
2021/05/02 05:35:32;;;;;;;;;;;;;;;4.40;83.10;101358.87;2575558;55;20001;-72
2021/05/02 05:37:59;;;;;;;;;;;;;;;4.68;81.21;101357.81;2575306;55;19996;-73
2021/05/02 05:40:27;;;;;;;;;;;;;;;4.88;80.82;101357.84;2575606;55;19989;-73
2021/05/02 05:42:56;;;;;;;;;;;;;;;4.96;80.97;101361.97;2574979;55;19993;-74
2021/05/02 05:45:26;;;;;;;;;;;;;;;5.08;80.98;101361.47;2575615;55;20014;-73
2021/05/02 05:47:54;;;;;;;;;;;;;;;5.27;80.70;101365.97;2574920;55;20004;-74
2021/05/02 05:50:23;;;;;;;;;;;;;;;5.34;80.31;101362.16;2575405;55;20019;-73
2021/05/02 05:52:51;;;;;;;;;;;;;;;5.35;80.32;101363.88;2575804;55;19996;-71
2021/05/02 05:55:20;;;;;;;;;;;;;;;5.33;79.68;101371.03;2576074;55;19980;-74
2021/05/02 05:57:50;;;;;;;;;;;;;;;5.39;80.17;101368.09;2570785;55;20670;-74
2021/05/02 06:00:18;;;;;;;;;;;;;;;5.43;79.40;101376.75;2575703;55;20005;-73
2021/05/02 06:02:51;;;;;;;;;;;;;;;5.57;79.04;101368.22;2576326;55;20003;-73
2021/05/02 06:05:22;;;;;;;;;;;;;;;5.84;76.52;101373.25;2569682;55;19992;-72
2021/05/02 06:07:50;;;;;;;;;;;;;;;5.97;77.01;101382.34;2571583;55;20026;-72
2021/05/02 06:10:17;;;;;;;;;;;;;;;6.10;76.68;101377.38;2576447;55;20017;-73
2021/05/02 06:12:45;;;;;;;;;;;;;;;6.27;76.52;101381.06;2576609;55;19989;-70
2021/05/02 06:15:13;;;;;;;;;;;;;;;6.47;75.93;101382.75;2576471;55;20055;-72
2021/05/02 06:17:51;;;;;;;;;;;;;;;6.68;75.07;101385.31;2576135;55;20015;-72
2021/05/02 06:20:22;;;;;;;;;;;;;;;6.73;73.97;101388.63;2576246;55;19996;-72
2021/05/02 06:22:53;;;;;;;;;;;;;;;6.80;72.47;101391.84;2576739;55;20004;-73
2021/05/02 06:25:22;;;;;;;;;;;;;;;6.82;73.29;101390.84;2576259;55;19985;-74
2021/05/02 06:27:56;;;;;;;;;;;;;;;6.91;73.12;101388.63;2569640;55;20398;-71
2021/05/02 06:30:30;;;;;;;;;;;;;;;7.02;72.73;101396.97;2575940;55;20010;-73
2021/05/02 06:33:02;;;;;;;;;;;;;;;7.10;67.49;101399.22;2576421;55;20637;-73
2021/05/02 06:35:29;;;;;;;;;;;;;;;7.01;67.87;101400.50;2576256;55;20010;-73
2021/05/02 06:37:56;;;;;;;;;;;;;;;6.99;68.66;101397.09;2576583;55;19992;-72
2021/05/02 06:40:23;;;;;;;;;;;;;;;6.93;66.22;101402.72;2571580;55;19997;-74
2021/05/02 06:42:50;;;;;;;;;;;;;;;7.06;61.47;101402.94;2576634;55;20582;-72
2021/05/02 06:45:18;;;;;;;;;;;;;;;7.01;60.62;101400.50;2576482;55;20009;-74
2021/05/02 06:47:45;;;;;;;;;;;;;;;6.94;61.12;101404.44;2576391;55;19989;-74
2021/05/02 06:50:14;;;;;;;;;;;;;;;6.90;62.62;101405.50;2576218;55;20395;-75
2021/05/02 06:52:41;;;;;;;;;;;;;;;6.91;62.28;101405.44;2576595;55;20021;-74
2021/05/02 06:55:08;;;;;;;;;;;;;;;7.00;61.70;101395.31;2576712;55;20010;-72
2021/05/02 06:57:36;;;;;;;;;;;;;;;7.12;61.64;101412.44;2576742;55;20524;-73
2021/05/02 07:00:04;;;;;;;;;;;;;;;7.15;58.33;101409.63;2576315;55;19996;-73
2021/05/02 07:02:31;;;;;;;;;;;;;;;7.07;58.11;101402.03;2576190;55;20003;-74
2021/05/02 07:04:58;;;;;;;;;;;;;;;7.12;57.40;101409.78;2576519;55;20006;-74
2021/05/02 07:07:28;;;;;;;;;;;;;;;7.21;58.75;101412.81;2570670;55;20047;-73
2021/05/02 07:09:55;;;;;;;;;;;;;;;7.23;58.85;101407.44;2572454;55;20016;-74
2021/05/02 07:12:24;;;;;;;;;;;;;;;7.31;58.99;101413.19;2571389;55;20011;-73
2021/05/02 07:14:51;;;;;;;;;;;;;;;7.42;58.26;101417.97;2571057;55;20007;-74
2021/05/02 07:17:20;;;;;;;;;;;;;;;7.38;58.08;101414.62;2571144;55;20526;-73
2021/05/02 07:19:47;;;;;;;;;;;;;;;7.42;59.08;101420.63;2571134;55;20003;-73
2021/05/02 07:22:15;;;;;;;;;;;;;;;7.51;57.45;101406.87;2571346;55;20011;-74
2021/05/02 07:24:43;;;;;;;;;;;;;;;7.57;56.32;101420.81;2571087;55;20012;-73
2021/05/02 07:27:11;;;;;;;;;;;;;;;7.40;56.42;101411.91;2574710;55;19989;-72
2021/05/02 07:29:37;;;;;;;;;;;;;;;7.44;54.45;101423.22;2575919;55;19993;-73
2021/05/02 07:32:05;;;;;;;;;;;;;;;7.18;57.52;101417.41;2575773;55;20081;-74
2021/05/02 07:34:33;;;;;;;;;;;;;;;7.22;55.37;101424.31;2576203;55;19988;-73
2021/05/02 07:37:00;;;;;;;;;;;;;;;7.15;57.77;101422.88;2576343;55;20015;-72
2021/05/02 07:39:27;;;;;;;;;;;;;;;7.15;57.50;101417.56;2576107;55;20022;-73
2021/05/02 07:41:55;;;;;;;;;;;;;;;7.25;56.19;101413.53;2570963;55;20051;-72
2021/05/02 07:44:22;;;;;;;;;;;;;;;7.30;55.04;101418.59;2576008;55;20007;-72
2021/05/02 07:46:49;;;;;;;;;;;;;;;7.09;56.53;101414.28;2575971;55;20004;-73
2021/05/02 07:49:16;;;;;;;;;;;;;;;7.10;57.08;101413.34;2575243;55;20535;-73
2021/05/02 07:51:43;;;;;;;;;;;;;;;7.19;57.60;101413.81;2575947;55;19993;-75
2021/05/02 07:54:10;;;;;;;;;;;;;;;7.28;57.09;101412.53;2576815;55;20019;-73
2021/05/02 07:56:39;;;;;;;;;;;;;;;7.42;57.80;101399.37;2576348;55;19988;-71
2021/05/02 07:59:07;;;;;;;;;;;;;;;7.65;56.74;101408.84;2576089;55;20010;-71
2021/05/02 08:01:34;;;;;;;;;;;;;;;7.74;56.82;101410.16;2576057;55;20049;-71
2021/05/02 08:04:01;;;;;;;;;;;;;;;7.86;55.98;101407.78;2576212;55;19997;-74
2021/05/02 08:06:31;;;;;;;;;;;;;;;7.91;56.13;101398.63;2576992;55;19997;-72
2021/05/02 08:09:05;;;;;;;;;;;;;;;8.01;53.07;101400.78;2571385;55;20484;-72
2021/05/02 08:11:32;;;;;;;;;;;;;;;7.81;54.02;101405.38;2576762;55;19989;-72
2021/05/02 08:13:59;;;;;;;;;;;;;;;7.82;54.32;101401.78;2576633;55;20054;-72
2021/05/02 08:16:27;;;;;;;;;;;;;;;7.81;55.39;101400.06;2575547;55;20422;-73
2021/05/02 08:18:55;;;;;;;;;;;;;;;8.08;54.40;101396.88;2570997;55;19996;-72
2021/05/02 08:21:24;;;;;;;;;;;;;;;8.01;52.79;101406.97;2571219;55;20018;-72
2021/05/02 08:23:51;;;;;;;;;;;;;;;8.07;54.01;101400.47;2576719;55;20019;-71
2021/05/02 08:26:18;;;;;;;;;;;;;;;8.14;55.25;101393.91;2576228;55;20007;-72
2021/05/02 08:28:45;;;;;;;;;;;;;;;8.24;55.38;101393.41;2576480;55;19985;-71
2021/05/02 08:31:16;;;;;;;;;;;;;;;8.46;54.97;101401.91;2576794;55;20008;-71
2021/05/02 08:33:48;;;;;;;;;;;;;;;8.59;54.21;101393.25;2577225;55;19996;-73
2021/05/02 08:36:19;;;;;;;;;;;;;;;8.74;54.85;101400.41;2570591;55;20068;-72
2021/05/02 08:38:46;;;;;;;;;;;;;;;8.89;54.47;101398.66;2576389;55;19992;-73
2021/05/02 08:41:13;;;;;;;;;;;;;;;9.01;53.54;101402.41;2576503;55;20001;-72
2021/05/02 08:43:41;;;;;;;;;;;;;;;9.12;53.59;101399.13;2576624;55;19993;-72
2021/05/02 08:46:09;;;;;;;;;;;;;;;9.10;51.75;101400.16;2580174;55;19989;-73
2021/05/02 08:48:39;;;;;;;;;;;;;;;8.92;52.21;101402.97;2580155;55;19997;-73
2021/05/02 08:51:08;;;;;;;;;;;;;;;8.83;53.21;101395.50;2581132;55;20008;-72
2021/05/02 08:53:38;;;;;;;;;;;;;;;8.87;52.19;101405.00;2582326;55;19996;-71
2021/05/02 08:56:05;;;;;;;;;;;;;;;8.89;53.09;101403.13;2580595;55;20000;-71
2021/05/02 08:58:32;;;;;;;;;;;;;;;8.86;51.74;101404.13;2580981;55;20394;-72
2021/05/02 09:01:00;;;;;;;;;;;;;;;8.70;52.73;101405.97;2581532;55;20386;-72
2021/05/02 09:03:41;;;;;;;;;;;;;;;8.62;52.89;101409.06;2581130;55;20007;-72
2021/05/02 09:06:17;;;;;;;;;;;;;;;8.61;51.02;101402.87;2581392;55;19996;-72
2021/05/02 09:08:45;;;;;;;;;;;;;;;8.56;52.49;101417.38;2581659;55;19988;-71
2021/05/02 09:11:13;;;;;;;;;;;;;;;8.65;50.27;101414.22;2576337;55;20457;-70
2021/05/02 09:13:49;;;;;;;;;;;;;;;8.51;50.21;101406.13;2581475;55;20001;-71
2021/05/02 09:16:16;;;;;;;;;;;;;;;8.38;52.01;101398.81;2580966;55;20551;-70
2021/05/02 09:18:46;;;;;;;;;;;;;;;8.54;51.43;101404.16;2581449;55;20387;-71
2021/05/02 09:21:17;;;;;;;;;;;;;;;8.44;50.70;101403.78;2581786;55;20446;-69
2021/05/02 09:23:45;;;;;;;;;;;;;;;8.52;50.75;101405.19;2581313;55;20503;-70
2021/05/02 09:26:21;;;;;;;;;;;;;;;8.45;51.48;101400.19;2580893;55;20491;-70
2021/05/02 09:28:49;;;;;;;;;;;;;;;8.50;49.37;101399.94;2577165;55;19993;-72
2021/05/02 09:31:17;;;;;;;;;;;;;;;8.30;50.70;101415.19;2576426;55;20018;-71
2021/05/02 09:33:45;;;;;;;;;;;;;;;8.20;49.86;101406.84;2577105;55;20055;-71
2021/05/02 09:36:14;;;;;;;;;;;;;;;8.00;50.71;101404.38;2577252;55;19999;-71
2021/05/02 09:38:42;;;;;;;;;;;;;;;7.87;52.27;101394.44;2576670;55;19999;-71
2021/05/02 09:41:11;;;;;;;;;;;;;;;7.89;52.70;101405.81;2577095;55;20008;-72
2021/05/02 09:43:44;;;;;;;;;;;;;;;7.89;52.61;101392.53;2571836;55;19996;-72
2021/05/02 09:46:24;;;;;;;;;;;;;;;7.92;52.74;101403.03;2581383;55;20486;-72
2021/05/02 09:48:56;;;;;;;;;;;;;;;8.00;52.25;101399.06;2580799;55;20022;-72
2021/05/02 09:51:24;;;;;;;;;;;;;;;7.77;53.47;101394.06;2582435;55;19992;-72
2021/05/02 09:54:03;;;;;;;;;;;;;;;7.72;54.41;101387.28;2582394;55;19993;-72
2021/05/02 09:56:34;;;;;;;;;;;;;;;7.75;55.49;101395.06;2581825;55;19992;-72
2021/05/02 09:59:01;;;;;;;;;;;;;;;7.68;55.93;101397.19;2581980;55;20032;-72
2021/05/02 10:01:28;;;;;;;;;;;;;;;7.70;56.43;101394.44;2581812;55;20502;-72
2021/05/02 10:03:56;;;;;;;;;;;;;;;7.90;57.01;101396.91;2578623;55;20007;-72
2021/05/02 10:06:34;;;;;;;;;;;;;;;7.94;58.21;101400.25;2574135;55;19997;-72
2021/05/02 10:09:06;;;;;;;;;;;;;;;8.48;58.44;101400.00;2571026;55;20002;-72
2021/05/02 10:11:34;;;;;;;;;;;;;;;8.75;57.73;101395.91;2571624;55;20000;-70
2021/05/02 10:14:03;;;;;;;;;;;;;;;8.90;56.71;101394.19;2571430;55;20589;-73
2021/05/02 10:16:30;;;;;;;;;;;;;;;8.83;56.40;101383.03;2571193;55;20376;-70
2021/05/02 10:18:58;;;;;;;;;;;;;;;8.79;56.99;101384.16;2571598;55;20001;-73
2021/05/02 10:21:26;;;;;;;;;;;;;;;8.72;56.36;101390.78;2584221;55;20002;-72
2021/05/02 10:23:53;;;;;;;;;;;;;;;8.87;56.86;101392.56;2582932;55;19997;-74
2021/05/02 10:26:21;;;;;;;;;;;;;;;9.14;54.16;101391.91;2584233;55;19988;-71
2021/05/02 10:28:48;;;;;;;;;;;;;;;9.02;55.14;101393.50;2584179;55;20494;-73
2021/05/02 10:31:15;;;;;;;;;;;;;;;8.94;55.03;101385.09;2577438;55;20006;-72
2021/05/02 10:33:43;;;;;;;;;;;;;;;8.98;56.40;101386.63;2578930;55;19991;-71
2021/05/02 10:36:11;;;;;;;;;;;;;;;9.31;55.09;101385.59;2579196;55;19993;-71
2021/05/02 10:38:45;;;;;;;;;;;;;;;9.66;53.88;101375.59;2578572;55;20456;-71
2021/05/02 10:41:26;;;;;;;;;;;;;;;9.64;52.24;101381.00;2578269;55;20008;-73
2021/05/02 10:43:54;;;;;;;;;;;;;;;9.59;52.13;101386.59;2578458;55;19998;-73
2021/05/02 10:46:43;;;;;;;;;;;;;;;9.84;53.58;101387.78;2578742;55;20003;-71
2021/05/02 10:49:10;;;;;;;;;;;;;;;10.28;51.12;101387.75;2577145;55;20383;-71
2021/05/02 10:51:37;;;;;;;;;;;;;;;10.24;50.80;101375.59;2578809;55;19993;-72
2021/05/02 10:54:05;;;;;;;;;;;;;;;10.43;50.70;101381.50;2573540;55;20486;-72
2021/05/02 10:56:56;;;;;;;;;;;;;;;10.72;48.21;101380.56;2577328;55;20517;-71
2021/05/02 10:59:25;;;;;;;;;;;;;;;10.91;47.03;101374.84;2572849;55;20539;-71
2021/05/02 11:01:53;;;;;;;;;;;;;;;10.79;46.22;101375.66;2576851;55;20001;-72
2021/05/02 11:04:20;;;;;;;;;;;;;;;10.82;47.68;101381.66;2574249;55;19997;-71
2021/05/02 11:06:53;;;;;;;;;;;;;;;10.89;49.21;101376.78;2577073;55;20001;-72
2021/05/02 11:09:21;;;;;;;;;;;;;;;11.32;48.18;101377.50;2577062;55;20511;-71
2021/05/02 11:11:50;;;;;;;;;;;;;;;11.16;47.64;101378.56;2572379;55;20469;-72
2021/05/02 11:14:37;;;;;;;;;;;;;;;10.54;47.64;101379.94;2576994;55;20003;-71
2021/05/02 11:17:23;;;;;;;;;;;;;;;10.37;49.00;101380.97;2577084;55;20369;-71
2021/05/02 11:19:53;;;;;;;;;;;;;;;10.73;48.52;101376.09;2578874;55;19985;-71
2021/05/02 11:22:23;;;;;;;;;;;;;;;11.13;48.83;101376.13;2578858;55;20411;-71
2021/05/02 11:25:11;;;;;;;;;;;;;;;11.22;48.43;101378.16;2578075;55;20026;-71
2021/05/02 11:27:48;;;;;;;;;;;;;;;11.56;46.29;101385.66;2577938;55;19996;-71
2021/05/02 11:30:18;;;;;;;;;;;;;;;11.39;47.57;101382.37;2578727;55;20007;-71
2021/05/02 11:32:48;;;;;;;;;;;;;;;11.17;47.73;101385.63;2577968;55;20556;-71
2021/05/02 11:35:17;;;;;;;;;;;;;;;10.91;47.63;101385.53;2578659;55;20018;-70
2021/05/02 11:37:49;;;;;;;;;;;;;;;10.64;48.97;101383.72;2573576;55;20441;-71
2021/05/02 11:40:40;;;;;;;;;;;;;;;10.43;48.04;101392.16;2578495;55;19996;-70
2021/05/02 11:43:09;;;;;;;;;;;;;;;10.31;48.57;101390.22;2575588;55;20470;-71
2021/05/02 11:45:48;;;;;;;;;;;;;;;10.29;48.96;101386.81;2578508;55;20007;-71
2021/05/02 11:48:23;;;;;;;;;;;;;;;10.26;48.48;101390.50;2577477;55;20485;-71
2021/05/02 11:50:52;;;;;;;;;;;;;;;10.23;49.33;101397.88;2577860;55;19984;-71
2021/05/02 11:53:42;;;;;;;;;;;;;;;10.21;49.32;101391.75;2576208;55;20102;-71
2021/05/02 11:56:24;;;;;;;;;;;;;;;10.29;46.76;101393.00;2577393;55;20383;-71
2021/05/02 11:58:53;;;;;;;;;;;;;;;10.17;47.39;101396.44;2575629;55;20046;-71
2021/05/02 12:01:23;;;;;;;;;;;;;;;10.28;46.56;101396.63;2576566;55;19989;-71
2021/05/02 12:03:50;;;;;;;;;;;;;;;10.03;48.31;101399.97;2575123;55;20014;-71
2021/05/02 12:06:21;;;;;;;;;;;;;;;9.86;47.36;101393.88;2576341;55;19989;-70
2021/05/02 12:08:48;;;;;;;;;;;;;;;9.49;48.50;101396.09;2575311;55;20416;-70
2021/05/02 12:11:16;;;;;;;;;;;;;;;9.44;48.77;101396.37;2576575;55;20010;-70
2021/05/02 12:13:45;;;;;;;;;;;;;;;9.37;50.47;101397.72;2577037;55;20418;-70
2021/05/02 12:16:13;;;;;;;;;;;;;;;9.63;48.71;101407.75;2578277;55;19988;-70
2021/05/02 12:18:49;;;;;;;;;;;;;;;9.75;49.59;101396.34;2578183;55;20003;-70
2021/05/02 12:21:17;;;;;;;;;;;;;;;10.25;48.01;101388.81;2578256;55;20407;-71
2021/05/02 12:23:46;;;;;;;;;;;;;;;10.75;45.55;101406.19;2577603;55;20007;-71
2021/05/02 12:26:14;;;;;;;;;;;;;;;10.92;46.61;101399.75;2578262;55;20410;-70
2021/05/02 12:28:41;;;;;;;;;;;;;;;11.12;45.51;101401.09;2577453;55;19981;-70
2021/05/02 12:31:10;;;;;;;;;;;;;;;11.62;45.95;101397.75;2578224;55;19995;-72